sensor_id;sensor_type;location;lat;lon;timestamp;pressure;altitude;pressure_sealevel;temperature;humidity
71857;BME280;63344;46.980;28.882;2023-02-27T00:00:29;100642.47;;;3.53;97.89
71857;BME280;63344;46.980;28.882;2023-02-27T00:03:17;100637.28;;;3.50;97.61
71857;BME280;63344;46.980;28.882;2023-02-27T00:05:44;100641.66;;;3.50;97.45
71857;BME280;63344;46.980;28.882;2023-02-27T00:08:11;100642.53;;;3.47;97.80
71857;BME280;63344;46.980;28.882;2023-02-27T00:10:39;100638.19;;;3.46;97.93
71857;BME280;63344;46.980;28.882;2023-02-27T00:13:08;100632.03;;;3.47;98.28
71857;BME280;63344;46.980;28.882;2023-02-27T00:15:35;100632.94;;;3.48;98.04
71857;BME280;63344;46.980;28.882;2023-02-27T00:18:06;100641.72;;;3.44;98.02
71857;BME280;63344;46.980;28.882;2023-02-27T00:20:33;100639.97;;;3.44;97.80
71857;BME280;63344;46.980;28.882;2023-02-27T00:23:05;100632.09;;;3.43;98.39
71857;BME280;63344;46.980;28.882;2023-02-27T00:25:33;100634.72;;;3.46;98.18
71857;BME280;63344;46.980;28.882;2023-02-27T00:28:02;100639.06;;;3.45;98.40
71857;BME280;63344;46.980;28.882;2023-02-27T00:30:30;100640.88;;;3.42;98.59
71857;BME280;63344;46.980;28.882;2023-02-27T00:32:58;100646.13;;;3.40;98.57
71857;BME280;63344;46.980;28.882;2023-02-27T00:35:25;100656.56;;;3.46;98.69
71857;BME280;63344;46.980;28.882;2023-02-27T00:37:52;100645.22;;;3.46;98.65
71857;BME280;63344;46.980;28.882;2023-02-27T00:40:19;100630.38;;;3.38;98.56
71857;BME280;63344;46.980;28.882;2023-02-27T00:42:47;100638.25;;;3.40;98.76
71857;BME280;63344;46.980;28.882;2023-02-27T00:45:15;100633.00;;;3.40;98.76
71857;BME280;63344;46.980;28.882;2023-02-27T00:47:43;100634.78;;;3.38;98.59
71857;BME280;63344;46.980;28.882;2023-02-27T00:50:11;100649.63;;;3.42;98.72
71857;BME280;63344;46.980;28.882;2023-02-27T00:52:39;100643.47;;;3.43;98.86
71857;BME280;63344;46.980;28.882;2023-02-27T00:55:07;100645.22;;;3.44;99.15
71857;BME280;63344;46.980;28.882;2023-02-27T00:57:35;100647.84;;;3.44;98.81
71857;BME280;63344;46.980;28.882;2023-02-27T01:00:03;100657.44;;;3.45;99.02
71857;BME280;63344;46.980;28.882;2023-02-27T01:02:33;100663.53;;;3.50;98.62
71857;BME280;63344;46.980;28.882;2023-02-27T01:05:01;100655.66;;;3.49;98.67
71857;BME280;63344;46.980;28.882;2023-02-27T01:07:31;100655.66;;;3.50;98.21
71857;BME280;63344;46.980;28.882;2023-02-27T01:09:59;100654.75;;;3.51;98.03
71857;BME280;63344;46.980;28.882;2023-02-27T01:12:27;100658.28;;;3.50;98.17
71857;BME280;63344;46.980;28.882;2023-02-27T01:14:54;100663.53;;;3.52;97.87
71857;BME280;63344;46.980;28.882;2023-02-27T01:17:22;100652.13;;;3.51;97.92
71857;BME280;63344;46.980;28.882;2023-02-27T01:19:49;100643.41;;;3.49;97.96
71857;BME280;63344;46.980;28.882;2023-02-27T01:22:16;100643.44;;;3.45;97.68
71857;BME280;63344;46.980;28.882;2023-02-27T01:24:43;100649.56;;;3.45;97.51
71857;BME280;63344;46.980;28.882;2023-02-27T01:27:11;100641.75;;;3.42;97.26
71857;BME280;63344;46.980;28.882;2023-02-27T01:29:39;100645.22;;;3.46;97.44
71857;BME280;63344;46.980;28.882;2023-02-27T01:32:06;100652.19;;;3.45;97.49
71857;BME280;63344;46.980;28.882;2023-02-27T01:34:34;100650.47;;;3.46;97.15
71857;BME280;63344;46.980;28.882;2023-02-27T01:37:02;100651.31;;;3.46;96.97
71857;BME280;63344;46.980;28.882;2023-02-27T01:39:29;100654.81;;;3.47;96.85
71857;BME280;63344;46.980;28.882;2023-02-27T01:41:59;100648.72;;;3.43;96.59
71857;BME280;63344;46.980;28.882;2023-02-27T01:44:28;100641.75;;;3.42;96.98
71857;BME280;63344;46.980;28.882;2023-02-27T01:46:57;100653.09;;;3.44;97.03
71857;BME280;63344;46.980;28.882;2023-02-27T01:49:32;100660.97;;;3.46;96.73
71857;BME280;63344;46.980;28.882;2023-02-27T01:52:04;100647.91;;;3.36;96.33
71857;BME280;63344;46.980;28.882;2023-02-27T01:54:35;100664.47;;;3.43;96.51
71857;BME280;63344;46.980;28.882;2023-02-27T01:57:04;100673.19;;;3.45;96.24
71857;BME280;63344;46.980;28.882;2023-02-27T01:59:37;100684.53;;;3.49;96.53
71857;BME280;63344;46.980;28.882;2023-02-27T02:02:23;100667.94;;;3.50;95.90
71857;BME280;63344;46.980;28.882;2023-02-27T02:04:53;100646.03;;;3.49;95.87
71857;BME280;63344;46.980;28.882;2023-02-27T02:07:21;100647.84;;;3.46;95.57
71857;BME280;63344;46.980;28.882;2023-02-27T02:09:53;100641.69;;;3.45;95.93
71857;BME280;63344;46.980;28.882;2023-02-27T02:12:33;100641.75;;;3.42;95.85
71857;BME280;63344;46.980;28.882;2023-02-27T02:15:02;100628.63;;;3.39;95.86
71857;BME280;63344;46.980;28.882;2023-02-27T02:17:44;100644.38;;;3.39;96.10
71857;BME280;63344;46.980;28.882;2023-02-27T02:40:23;100687.22;;;3.44;95.86
71857;BME280;63344;46.980;28.882;2023-02-27T02:43:11;100686.31;;;3.48;95.58
71857;BME280;63344;46.980;28.882;2023-02-27T02:46:12;100695.94;;;3.48;95.55
71857;BME280;63344;46.980;28.882;2023-02-27T02:48:53;100701.16;;;3.49;95.28
71857;BME280;63344;46.980;28.882;2023-02-27T02:51:33;100695.06;;;3.47;95.38
71857;BME280;63344;46.980;28.882;2023-02-27T02:54:11;100692.44;;;3.49;95.07
71857;BME280;63344;46.980;28.882;2023-02-27T02:56:52;100698.53;;;3.49;95.41
71857;BME280;63344;46.980;28.882;2023-02-27T03:02:06;100695.91;;;3.49;96.02
71857;BME280;63344;46.980;28.882;2023-02-27T03:04:41;100705.53;;;3.52;95.54
71857;BME280;63344;46.980;28.882;2023-02-27T03:07:21;100709.91;;;3.51;95.41
71857;BME280;63344;46.980;28.882;2023-02-27T03:09:56;100681.94;;;3.47;95.39
71857;BME280;63344;46.980;28.882;2023-02-27T03:12:30;100687.19;;;3.47;95.37
71857;BME280;63344;46.980;28.882;2023-02-27T03:15:08;100693.31;;;3.48;95.51
71857;BME280;63344;46.980;28.882;2023-02-27T03:17:45;100694.19;;;3.47;95.79
71857;BME280;63344;46.980;28.882;2023-02-27T03:20:23;100693.34;;;3.46;95.50
71857;BME280;63344;46.980;28.882;2023-02-27T03:22:55;100698.53;;;3.49;95.31
71857;BME280;63344;46.980;28.882;2023-02-27T03:25:24;100700.31;;;3.47;95.58
71857;BME280;63344;46.980;28.882;2023-02-27T03:27:57;100694.19;;;3.48;95.29
71857;BME280;63344;46.980;28.882;2023-02-27T03:30:35;100685.41;;;3.49;95.07
71857;BME280;63344;46.980;28.882;2023-02-27T03:33:15;100711.69;;;3.48;95.14
71857;BME280;63344;46.980;28.882;2023-02-27T03:35:49;100715.19;;;3.48;95.42
71857;BME280;63344;46.980;28.882;2023-02-27T03:38:26;100713.44;;;3.50;94.61
71857;BME280;63344;46.980;28.882;2023-02-27T03:46:20;100713.44;;;3.50;94.34
71857;BME280;63344;46.980;28.882;2023-02-27T03:48:49;100702.94;;;3.49;94.37
71857;BME280;63344;46.980;28.882;2023-02-27T03:51:19;100712.53;;;3.51;94.44
71857;BME280;63344;46.980;28.882;2023-02-27T03:54:10;100718.69;;;3.50;94.37
71857;BME280;63344;46.980;28.882;2023-02-27T03:59:15;100721.31;;;3.49;94.26
71857;BME280;63344;46.980;28.882;2023-02-27T04:01:43;100721.31;;;3.50;94.15
71857;BME280;63344;46.980;28.882;2023-02-27T04:04:13;100728.28;;;3.51;94.37
71857;BME280;63344;46.980;28.882;2023-02-27T04:07:02;100713.41;;;3.52;93.96
71857;BME280;63344;46.980;28.882;2023-02-27T04:10:17;100716.03;;;3.52;93.72
71857;BME280;63344;46.980;28.882;2023-02-27T04:16:16;100704.69;;;3.47;94.08
71857;BME280;63344;46.980;28.882;2023-02-27T04:25:07;100716.91;;;3.49;94.16
71857;BME280;63344;46.980;28.882;2023-02-27T04:30:59;100716.06;;;3.47;94.34
71857;BME280;63344;46.980;28.882;2023-02-27T04:34:36;100716.91;;;3.49;94.32
71857;BME280;63344;46.980;28.882;2023-02-27T04:36:35;100722.16;;;3.49;93.65
71857;BME280;63344;46.980;28.882;2023-02-27T04:39:17;100732.66;;;3.54;93.43
71857;BME280;63344;46.980;28.882;2023-02-27T04:42:15;100733.56;;;3.50;93.47
71857;BME280;63344;46.980;28.882;2023-02-27T04:44:46;100725.69;;;3.50;93.70
71857;BME280;63344;46.980;28.882;2023-02-27T04:47:16;100731.75;;;3.53;93.51
71857;BME280;63344;46.980;28.882;2023-02-27T04:50:04;100737.91;;;3.51;93.40
71857;BME280;63344;46.980;28.882;2023-02-27T04:52:37;100736.19;;;3.48;93.91
71857;BME280;63344;46.980;28.882;2023-02-27T04:55:16;100716.88;;;3.55;93.34
71857;BME280;63344;46.980;28.882;2023-02-27T04:57:58;100713.41;;;3.52;93.07
71857;BME280;63344;46.980;28.882;2023-02-27T05:00:30;100727.41;;;3.52;93.38
71857;BME280;63344;46.980;28.882;2023-02-27T05:03:04;100724.78;;;3.52;92.85
71857;BME280;63344;46.980;28.882;2023-02-27T05:05:38;100743.16;;;3.49;93.10
71857;BME280;63344;46.980;28.882;2023-02-27T05:08:32;100740.53;;;3.49;93.36
71857;BME280;63344;46.980;28.882;2023-02-27T05:14:34;100772.94;;;3.48;93.60
71857;BME280;63344;46.980;28.882;2023-02-27T05:17:14;100779.94;;;3.49;93.73
71857;BME280;63344;46.980;28.882;2023-02-27T05:19:43;100773.88;;;3.41;93.73
71857;BME280;63344;46.980;28.882;2023-02-27T05:25:09;100795.69;;;3.49;93.77
71857;BME280;63344;46.980;28.882;2023-02-27T05:27:47;100801.84;;;3.48;93.60
71857;BME280;63344;46.980;28.882;2023-02-27T05:30:35;100799.22;;;3.48;93.79
71857;BME280;63344;46.980;28.882;2023-02-27T05:33:11;100802.69;;;3.49;93.74
71857;BME280;63344;46.980;28.882;2023-02-27T05:35:55;100816.69;;;3.52;93.72
71857;BME280;63344;46.980;28.882;2023-02-27T05:38:39;100814.97;;;3.48;93.14
71857;BME280;63344;46.980;28.882;2023-02-27T05:41:17;100818.44;;;3.47;93.56
71857;BME280;63344;46.980;28.882;2023-02-27T05:44:09;100827.22;;;3.43;93.49
71857;BME280;63344;46.980;28.882;2023-02-27T05:50:19;100823.75;;;3.44;93.98
71857;BME280;63344;46.980;28.882;2023-02-27T05:52:48;100834.25;;;3.41;94.12
71857;BME280;63344;46.980;28.882;2023-02-27T05:55:24;100822.03;;;3.40;94.18
71857;BME280;63344;46.980;28.882;2023-02-27T06:00:53;100839.53;;;3.39;94.45
71857;BME280;63344;46.980;28.882;2023-02-27T06:03:24;100843.03;;;3.37;94.71
71857;BME280;63344;46.980;28.882;2023-02-27T06:05:52;100822.03;;;3.37;94.64
71857;BME280;63344;46.980;28.882;2023-02-27T06:08:21;100834.28;;;3.39;94.38
71857;BME280;63344;46.980;28.882;2023-02-27T06:10:48;100829.91;;;3.37;94.53
71857;BME280;63344;46.980;28.882;2023-02-27T06:13:16;100819.34;;;3.43;94.29
71857;BME280;63344;46.980;28.882;2023-02-27T06:15:44;100813.25;;;3.41;94.22
71857;BME280;63344;46.980;28.882;2023-02-27T06:18:12;100817.63;;;3.37;94.37
71857;BME280;63344;46.980;28.882;2023-02-27T06:20:41;100825.53;;;3.36;94.62
71857;BME280;63344;46.980;28.882;2023-02-27T06:23:10;100831.66;;;3.38;94.88
71857;BME280;63344;46.980;28.882;2023-02-27T06:25:38;100822.03;;;3.37;94.87
71857;BME280;63344;46.980;28.882;2023-02-27T06:28:07;100816.78;;;3.40;94.73
71857;BME280;63344;46.980;28.882;2023-02-27T06:30:37;100822.03;;;3.40;94.50
71857;BME280;63344;46.980;28.882;2023-02-27T06:33:19;100830.78;;;3.36;94.69
71857;BME280;63344;46.980;28.882;2023-02-27T06:35:48;100850.03;;;3.35;94.72
71857;BME280;63344;46.980;28.882;2023-02-27T06:38:17;100840.41;;;3.37;94.85
71857;BME280;63344;46.980;28.882;2023-02-27T06:40:44;100845.69;;;3.31;94.59
71857;BME280;63344;46.980;28.882;2023-02-27T06:43:12;100859.66;;;3.34;95.12
71857;BME280;63344;46.980;28.882;2023-02-27T06:45:42;100854.41;;;3.34;94.88
71857;BME280;63344;46.980;28.882;2023-02-27T06:48:10;100848.28;;;3.35;94.76
71857;BME280;63344;46.980;28.882;2023-02-27T06:50:38;100859.63;;;3.42;94.48
71857;BME280;63344;46.980;28.882;2023-02-27T06:53:05;100860.50;;;3.41;93.85
71857;BME280;63344;46.980;28.882;2023-02-27T06:55:33;100863.16;;;3.39;94.01
71857;BME280;63344;46.980;28.882;2023-02-27T06:58:00;100857.00;;;3.39;93.96
71857;BME280;63344;46.980;28.882;2023-02-27T07:00:29;100855.25;;;3.41;94.40
71857;BME280;63344;46.980;28.882;2023-02-27T07:02:57;100864.03;;;3.40;94.64
71857;BME280;63344;46.980;28.882;2023-02-27T07:05:24;100863.16;;;3.36;94.60
71857;BME280;63344;46.980;28.882;2023-02-27T07:07:52;100860.50;;;3.41;94.32
71857;BME280;63344;46.980;28.882;2023-02-27T07:10:19;100867.50;;;3.39;94.65
71857;BME280;63344;46.980;28.882;2023-02-27T07:12:47;100871.91;;;3.38;94.28
71857;BME280;63344;46.980;28.882;2023-02-27T07:15:14;100873.63;;;3.41;94.41
71857;BME280;63344;46.980;28.882;2023-02-27T07:17:42;100855.28;;;3.39;94.42
71857;BME280;63344;46.980;28.882;2023-02-27T07:20:09;100865.75;;;3.43;94.23
71857;BME280;63344;46.980;28.882;2023-02-27T07:22:38;100870.13;;;3.44;94.25
71857;BME280;63344;46.980;28.882;2023-02-27T07:25:07;100871.91;;;3.42;94.31
71857;BME280;63344;46.980;28.882;2023-02-27T07:27:35;100867.50;;;3.44;94.43
71857;BME280;63344;46.980;28.882;2023-02-27T07:30:02;100863.13;;;3.46;94.49
71857;BME280;63344;46.980;28.882;2023-02-27T07:32:30;100869.25;;;3.43;94.34
71857;BME280;63344;46.980;28.882;2023-02-27T07:34:57;100871.91;;;3.40;94.32
71857;BME280;63344;46.980;28.882;2023-02-27T07:37:25;100859.63;;;3.41;94.37
71857;BME280;63344;46.980;28.882;2023-02-27T07:39:53;100846.47;;;3.48;94.37
71857;BME280;63344;46.980;28.882;2023-02-27T07:42:22;100836.88;;;3.43;93.78
71857;BME280;63344;46.980;28.882;2023-02-27T07:44:49;100838.63;;;3.41;94.45
71857;BME280;63344;46.980;28.882;2023-02-27T07:47:30;100854.34;;;3.45;94.89
71857;BME280;63344;46.980;28.882;2023-02-27T07:49:57;100876.25;;;3.44;94.73
71857;BME280;63344;46.980;28.882;2023-02-27T07:52:28;100876.25;;;3.44;94.91
71857;BME280;63344;46.980;28.882;2023-02-27T07:55:00;100888.50;;;3.42;94.93
71857;BME280;63344;46.980;28.882;2023-02-27T07:57:32;100903.38;;;3.43;94.80
71857;BME280;63344;46.980;28.882;2023-02-27T08:00:04;100907.75;;;3.44;95.21
71857;BME280;63344;46.980;28.882;2023-02-27T08:02:34;100906.84;;;3.45;94.94
71857;BME280;63344;46.980;28.882;2023-02-27T08:05:03;100893.72;;;3.47;94.86
71857;BME280;63344;46.980;28.882;2023-02-27T08:07:45;100886.72;;;3.47;94.53
71857;BME280;63344;46.980;28.882;2023-02-27T08:10:12;100890.25;;;3.46;94.64
71857;BME280;63344;46.980;28.882;2023-02-27T08:12:42;100899.84;;;3.50;94.97
71857;BME280;63344;46.980;28.882;2023-02-27T08:15:11;100894.59;;;3.50;94.70
71857;BME280;63344;46.980;28.882;2023-02-27T08:17:38;100882.31;;;3.51;94.43
71857;BME280;63344;46.980;28.882;2023-02-27T08:20:06;100883.19;;;3.54;94.64
71857;BME280;63344;46.980;28.882;2023-02-27T08:22:34;100881.47;;;3.52;94.50
71857;BME280;63344;46.980;28.882;2023-02-27T08:25:04;100885.84;;;3.48;94.67
71857;BME280;63344;46.980;28.882;2023-02-27T08:27:36;100886.72;;;3.49;94.96
71857;BME280;63344;46.980;28.882;2023-02-27T08:30:07;100888.44;;;3.53;94.61
71857;BME280;63344;46.980;28.882;2023-02-27T08:32:35;100894.59;;;3.52;94.60
71857;BME280;63344;46.980;28.882;2023-02-27T08:35:03;100885.84;;;3.50;94.64
71857;BME280;63344;46.980;28.882;2023-02-27T08:37:31;100889.38;;;3.46;95.11
71857;BME280;63344;46.980;28.882;2023-02-27T08:39:58;100873.63;;;3.41;94.88
71857;BME280;63344;46.980;28.882;2023-02-27T08:42:26;100871.88;;;3.46;94.81
71857;BME280;63344;46.980;28.882;2023-02-27T08:44:53;100865.72;;;3.47;94.81
71857;BME280;63344;46.980;28.882;2023-02-27T08:47:22;100870.06;;;3.53;94.61
71857;BME280;63344;46.980;28.882;2023-02-27T08:49:49;100875.31;;;3.54;94.40
71857;BME280;63344;46.980;28.882;2023-02-27T08:52:17;100866.59;;;3.48;94.29
71857;BME280;63344;46.980;28.882;2023-02-27T08:54:44;100873.59;;;3.47;94.19
71857;BME280;63344;46.980;28.882;2023-02-27T08:57:12;100873.56;;;3.55;93.82
71857;BME280;63344;46.980;28.882;2023-02-27T08:59:39;100865.72;;;3.50;93.59
71857;BME280;63344;46.980;28.882;2023-02-27T09:02:06;100879.66;;;3.62;93.94
71857;BME280;63344;46.980;28.882;2023-02-27T09:04:33;100867.41;;;3.61;93.26
71857;BME280;63344;46.980;28.882;2023-02-27T09:07:09;100842.91;;;3.62;93.31
71857;BME280;63344;46.980;28.882;2023-02-27T09:09:36;100845.44;;;3.71;93.06
71857;BME280;63344;46.980;28.882;2023-02-27T09:12:04;100862.91;;;3.73;93.03
71857;BME280;63344;46.980;28.882;2023-02-27T09:14:31;100854.19;;;3.71;92.59
71857;BME280;63344;46.980;28.882;2023-02-27T09:16:59;100871.66;;;3.82;91.09
71857;BME280;63344;46.980;28.882;2023-02-27T09:19:26;100873.41;;;3.76;91.72
71857;BME280;63344;46.980;28.882;2023-02-27T09:21:55;100876.91;;;3.80;92.69
71857;BME280;63344;46.980;28.882;2023-02-27T09:24:24;100875.94;;;3.90;93.33
71857;BME280;63344;46.980;28.882;2023-02-27T09:27:06;100880.31;;;3.91;92.77
71857;BME280;63344;46.980;28.882;2023-02-27T09:29:33;100877.66;;;3.96;93.22
71857;BME280;63344;46.980;28.882;2023-02-27T09:32:01;100885.50;;;4.04;92.79
71857;BME280;63344;46.980;28.882;2023-02-27T09:34:29;100869.69;;;4.05;91.90
71857;BME280;63344;46.980;28.882;2023-02-27T09:36:59;100885.50;;;4.04;90.16
71857;BME280;63344;46.980;28.882;2023-02-27T09:39:27;100861.84;;;4.01;89.92
71857;BME280;63344;46.980;28.882;2023-02-27T09:42:13;100869.75;;;3.99;90.46
71857;BME280;63344;46.980;28.882;2023-02-27T09:44:47;100871.50;;;4.00;90.24
71857;BME280;63344;46.980;28.882;2023-02-27T09:47:26;100880.22;;;4.05;90.91
71857;BME280;63344;46.980;28.882;2023-02-27T09:52:30;100881.97;;;4.03;89.87
71857;BME280;63344;46.980;28.882;2023-02-27T09:54:59;100880.25;;;4.01;89.65
71857;BME280;63344;46.980;28.882;2023-02-27T09:57:36;100887.28;;;3.98;90.53
71857;BME280;63344;46.980;28.882;2023-02-27T10:11:00;100924.94;;;3.99;90.89
71857;BME280;63344;46.980;28.882;2023-02-27T10:13:46;100933.66;;;4.03;90.87
71857;BME280;63344;46.980;28.882;2023-02-27T10:16:19;100949.47;;;3.99;90.69
71857;BME280;63344;46.980;28.882;2023-02-27T10:18:57;100952.09;;;3.98;90.63
71857;BME280;63344;46.980;28.882;2023-02-27T10:21:33;100949.47;;;3.93;91.23
71857;BME280;63344;46.980;28.882;2023-02-27T10:24:04;100945.09;;;3.97;90.80
71857;BME280;63344;46.980;28.882;2023-02-27T10:26:42;100957.34;;;3.99;90.63
71857;BME280;63344;46.980;28.882;2023-02-27T10:29:23;100967.88;;;3.95;91.60
71857;BME280;63344;46.980;28.882;2023-02-27T10:34:29;100999.38;;;4.04;92.10
71857;BME280;63344;46.980;28.882;2023-02-27T10:37:02;100994.13;;;4.03;91.66
71857;BME280;63344;46.980;28.882;2023-02-27T10:39:44;100984.50;;;3.98;91.12
71857;BME280;63344;46.980;28.882;2023-02-27T10:42:15;100979.28;;;3.95;91.09
71857;BME280;63344;46.980;28.882;2023-02-27T10:44:43;100960.91;;;3.91;91.20
71857;BME280;63344;46.980;28.882;2023-02-27T10:47:13;100958.31;;;3.86;91.83
71857;BME280;63344;46.980;28.882;2023-02-27T10:49:42;100943.44;;;3.82;92.54
71857;BME280;63344;46.980;28.882;2023-02-27T10:52:12;100938.16;;;3.88;92.38
71857;BME280;63344;46.980;28.882;2023-02-27T10:54:40;100925.88;;;3.90;91.95
71857;BME280;63344;46.980;28.882;2023-02-27T10:57:29;100895.22;;;3.91;92.46
71857;BME280;63344;46.980;28.882;2023-02-27T11:00:02;100884.69;;;3.92;92.62
71857;BME280;63344;46.980;28.882;2023-02-27T11:02:40;100887.31;;;3.92;92.57
71857;BME280;63344;46.980;28.882;2023-02-27T11:05:23;100865.41;;;3.95;92.52
71857;BME280;63344;46.980;28.882;2023-02-27T11:07:53;100870.66;;;3.98;92.07
71857;BME280;63344;46.980;28.882;2023-02-27T11:10:27;100866.25;;;3.98;92.57
71857;BME280;63344;46.980;28.882;2023-02-27T11:15:26;100882.88;;;4.02;92.23
71857;BME280;63344;46.980;28.882;2023-02-27T11:18:18;100892.47;;;4.05;92.19
71857;BME280;63344;46.980;28.882;2023-02-27T11:20:45;100881.09;;;4.04;92.07
71857;BME280;63344;46.980;28.882;2023-02-27T11:23:22;100888.13;;;4.04;91.70
71857;BME280;63344;46.980;28.882;2023-02-27T11:25:50;100889.03;;;3.99;91.71
71857;BME280;63344;46.980;28.882;2023-02-27T11:28:34;100883.72;;;4.04;92.44
71857;BME280;63344;46.980;28.882;2023-02-27T11:31:06;100895.06;;;4.11;92.48
71857;BME280;63344;46.980;28.882;2023-02-27T11:33:53;100888.06;;;4.10;92.50
71857;BME280;63344;46.980;28.882;2023-02-27T11:39:20;100904.69;;;4.13;91.91
71857;BME280;63344;46.980;28.882;2023-02-27T11:41:49;100905.56;;;4.14;91.70
71857;BME280;63344;46.980;28.882;2023-02-27T11:44:18;100891.50;;;4.18;91.70
71857;BME280;63344;46.980;28.882;2023-02-27T11:47:18;100901.13;;;4.19;91.48
71857;BME280;63344;46.980;28.882;2023-02-27T11:55:28;100915.06;;;4.30;91.55
71857;BME280;63344;46.980;28.882;2023-02-27T11:58:12;100924.69;;;4.31;90.19
71857;BME280;63344;46.980;28.882;2023-02-27T12:00:49;100921.25;;;4.23;89.73
71857;BME280;63344;46.980;28.882;2023-02-27T12:06:18;100912.50;;;4.21;89.46
71857;BME280;63344;46.980;28.882;2023-02-27T12:08:54;100929.13;;;4.23;90.26
71857;BME280;63344;46.980;28.882;2023-02-27T12:19:34;100952.78;;;4.23;89.68
71857;BME280;63344;46.980;28.882;2023-02-27T12:24:42;100976.44;;;4.26;89.49
71857;BME280;63344;46.980;28.882;2023-02-27T12:27:58;100984.28;;;4.29;89.78
71857;BME280;63344;46.980;28.882;2023-02-27T12:30:15;100955.41;;;4.28;89.83
71857;BME280;63344;46.980;28.882;2023-02-27T12:32:45;100973.78;;;4.31;90.08
71857;BME280;63344;46.980;28.882;2023-02-27T12:35:19;100984.28;;;4.29;89.51
71857;BME280;63344;46.980;28.882;2023-02-27T12:37:49;101005.31;;;4.32;89.88
71857;BME280;63344;46.980;28.882;2023-02-27T12:40:19;101009.72;;;4.27;89.33
71857;BME280;63344;46.980;28.882;2023-02-27T12:46:00;101015.00;;;4.24;89.09
71857;BME280;63344;46.980;28.882;2023-02-27T12:54:21;100963.31;;;4.23;89.50
71857;BME280;63344;46.980;28.882;2023-02-27T13:05:08;100986.09;;;4.24;90.38
71857;BME280;63344;46.980;28.882;2023-02-27T13:13:17;101004.50;;;4.21;89.98
71857;BME280;63344;46.980;28.882;2023-02-27T13:15:52;101020.28;;;4.23;90.01
71857;BME280;63344;46.980;28.882;2023-02-27T13:18:53;101033.41;;;4.21;89.46
71857;BME280;63344;46.980;28.882;2023-02-27T13:24:15;101064.97;;;4.24;88.93
71857;BME280;63344;46.980;28.882;2023-02-27T13:27:36;101070.28;;;4.13;88.77
71857;BME280;63344;46.980;28.882;2023-02-27T13:29:41;101079.00;;;4.18;89.52
71857;BME280;63344;46.980;28.882;2023-02-27T13:32:45;101099.09;;;4.27;89.21
71857;BME280;63344;46.980;28.882;2023-02-27T13:38:46;101134.16;;;4.31;89.37
71857;BME280;63344;46.980;28.882;2023-02-27T13:43:52;101128.91;;;4.31;89.30
71857;BME280;63344;46.980;28.882;2023-02-27T13:46:30;101121.00;;;4.34;89.53
71857;BME280;63344;46.980;28.882;2023-02-27T13:59:35;101151.75;;;4.19;89.13
71857;BME280;63344;46.980;28.882;2023-02-27T14:04:53;101139.47;;;4.17;89.30
71857;BME280;63344;46.980;28.882;2023-02-27T14:07:24;101132.47;;;4.14;89.35
71857;BME280;63344;46.980;28.882;2023-02-27T14:10:01;101129.00;;;4.12;89.48
71857;BME280;63344;46.980;28.882;2023-02-27T14:12:36;101136.00;;;4.13;89.49
71857;BME280;63344;46.980;28.882;2023-02-27T14:17:53;101129.91;;;3.99;89.90
71857;BME280;63344;46.980;28.882;2023-02-27T14:31:05;101173.75;;;3.83;90.88
71857;BME280;63344;46.980;28.882;2023-02-27T14:33:44;101194.78;;;3.86;91.22
71857;BME280;63344;46.980;28.882;2023-02-27T14:36:43;101194.75;;;3.85;91.43
71857;BME280;63344;46.980;28.882;2023-02-27T14:39:26;101186.03;;;3.76;90.73
71857;BME280;63344;46.980;28.882;2023-02-27T14:44:51;101189.56;;;3.48;92.01
71857;BME280;63344;46.980;28.882;2023-02-27T14:49:57;101224.56;;;3.54;93.27
71857;BME280;63344;46.980;28.882;2023-02-27T14:52:27;101230.69;;;3.58;93.59
71857;BME280;63344;46.980;28.882;2023-02-27T14:55:14;101251.72;;;3.58;93.39
71857;BME280;63344;46.980;28.882;2023-02-27T15:00:39;101256.09;;;3.56;93.42
71857;BME280;63344;46.980;28.882;2023-02-27T15:03:37;101255.19;;;3.55;93.41
71857;BME280;63344;46.980;28.882;2023-02-27T15:06:18;101241.19;;;3.49;93.67
71857;BME280;63344;46.980;28.882;2023-02-27T15:08:49;101257.81;;;3.49;93.67
71857;BME280;63344;46.980;28.882;2023-02-27T15:11:20;101270.06;;;3.47;93.85
71857;BME280;63344;46.980;28.882;2023-02-27T15:14:02;101270.97;;;3.46;93.97
71857;BME280;63344;46.980;28.882;2023-02-27T15:16:55;101265.72;;;3.46;94.31
71857;BME280;63344;46.980;28.882;2023-02-27T15:19:52;101277.09;;;3.42;94.00
71857;BME280;63344;46.980;28.882;2023-02-27T15:22:22;101274.44;;;3.34;94.16
71857;BME280;63344;46.980;28.882;2023-02-27T15:25:06;101277.94;;;3.33;94.33
71857;BME280;63344;46.980;28.882;2023-02-27T15:27:51;101263.91;;;3.25;93.79
71857;BME280;63344;46.980;28.882;2023-02-27T15:30:20;101284.03;;;3.12;93.89
71857;BME280;63344;46.980;28.882;2023-02-27T15:32:48;101301.56;;;3.19;94.24
71857;BME280;63344;46.980;28.882;2023-02-27T15:35:29;101288.38;;;3.09;94.05
71857;BME280;63344;46.980;28.882;2023-02-27T15:37:59;101307.66;;;3.14;94.15
71857;BME280;63344;46.980;28.882;2023-02-27T15:40:29;101327.78;;;3.16;94.33
71857;BME280;63344;46.980;28.882;2023-02-27T15:42:59;101331.28;;;3.17;94.67
71857;BME280;63344;46.980;28.882;2023-02-27T15:45:33;101329.50;;;3.17;94.60
71857;BME280;63344;46.980;28.882;2023-02-27T15:48:04;101302.38;;;3.09;94.38
71857;BME280;63344;46.980;28.882;2023-02-27T15:50:36;101299.78;;;3.12;94.20
71857;BME280;63344;46.980;28.882;2023-02-27T15:55:50;101329.47;;;3.02;94.14
71857;BME280;63344;46.980;28.882;2023-02-27T15:58:19;101354.84;;;3.05;94.59
71857;BME280;63344;46.980;28.882;2023-02-27T16:00:47;101361.00;;;3.08;94.93
71857;BME280;63344;46.980;28.882;2023-02-27T16:03:20;101368.84;;;3.07;94.62
71857;BME280;63344;46.980;28.882;2023-02-27T16:05:50;101359.25;;;3.06;94.31
71857;BME280;63344;46.980;28.882;2023-02-27T16:08:19;101359.22;;;3.07;93.75